Time;durP1;ratioP1;P1;durP2;ratioP2;P2;SDS_P1;SDS_P2;PMS_P1;PMS_P2;Temp;Humidity;BMP_temperature;BMP_pressure;BME280_temperature;BME280_humidity;BME280_pressure;Samples;Min_cycle;Max_cycle;Signal;HPM_P1;HPM_P2
2022/08/03 06:23:06;;;;;;;8.77;5.38;;;;;;;;;;4988986;28;20144;-83
2022/08/03 06:25:43;;;;;;;7.00;4.88;;;;;;;;;;4985137;28;20052;-82
2022/08/03 06:28:17;;;;;;;7.18;5.22;;;;;;;;;;4984064;28;20627;-82
2022/08/03 06:31:05;;;;;;;5.93;4.78;;;;;;;;;;4994300;28;20142;-82
2022/08/03 06:33:33;;;;;;;7.63;4.65;;;;;;;;;;4973305;28;20061;-82
2022/08/03 06:36:47;;;;;;;6.47;4.60;;;;;;;;;;4996248;28;20099;-82
2022/08/03 06:39:21;;;;;;;8.82;4.80;;;;;;;;;;4996283;28;20169;-82
2022/08/03 06:42:15;;;;;;;;;;;;;;;;;;4983793;28;20411;-83
2022/08/03 06:45:02;;;;;;;7.28;4.35;;;;;;;;;;4989445;28;19925;-85
2022/08/03 06:47:36;;;;;;;10.23;4.43;;;;;;;;;;4991215;28;20054;-84
2022/08/03 06:50:05;;;;;;;6.50;4.22;;;;;;;;;;4984098;28;20050;-83
2022/08/03 06:52:44;;;;;;;6.20;4.03;;;;;;;;;;5001462;28;20048;-83
2022/08/03 06:55:15;;;;;;;7.32;4.10;;;;;;;;;;4986396;28;20112;-83
2022/08/03 06:57:43;;;;;;;7.65;4.13;;;;;;;;;;5003198;28;20050;-83
2022/08/03 07:00:12;;;;;;;7.80;3.92;;;;;;;;;;5003763;28;20060;-83
2022/08/03 07:02:41;;;;;;;6.25;3.78;;;;;;;;;;4988165;28;20126;-82
2022/08/03 07:05:10;;;;;;;7.07;4.53;;;;;;;;;;4995055;28;20042;-83
2022/08/03 07:08:03;;;;;;;6.55;3.63;;;;;;;;;;5003193;28;20046;-85
2022/08/03 07:10:31;;;;;;;6.32;3.50;;;;;;;;;;4973361;28;20133;-85
2022/08/03 07:12:59;;;;;;;8.18;3.85;;;;;;;;;;4999966;28;20050;-85
2022/08/03 07:15:51;;;;;;;6.03;3.58;;;;;;;;;;4982739;28;20050;-85
2022/08/03 07:18:27;;;;;;;6.18;3.00;;;;;;;;;;5000473;28;20046;-85
2022/08/03 07:21:01;;;;;;;7.03;3.92;;;;;;;;;;4996240;28;20147;-85
2022/08/03 07:23:29;;;;;;;6.45;3.30;;;;;;;;;;4996677;28;20101;-85
2022/08/03 07:26:17;;;;;;;8.00;3.60;;;;;;;;;;4972741;28;20086;-83
2022/08/03 07:28:45;;;;;;;7.18;3.40;;;;;;;;;;4987065;28;20551;-84
2022/08/03 07:31:13;;;;;;;6.72;3.65;;;;;;;;;;4983382;28;20149;-83
2022/08/03 07:33:41;;;;;;;5.93;3.88;;;;;;;;;;5000911;28;20050;-83
2022/08/03 07:36:33;;;;;;;8.68;3.03;;;;;;;;;;4998888;28;20050;-82
2022/08/03 07:39:01;;;;;;;6.15;3.15;;;;;;;;;;4995303;28;20049;-82
2022/08/03 07:41:44;;;;;;;6.82;3.30;;;;;;;;;;5000735;28;20049;-81
2022/08/03 07:44:12;;;;;;;5.28;3.10;;;;;;;;;;4997184;28;20077;-81
2022/08/03 07:46:39;;;;;;;6.75;3.45;;;;;;;;;;4986992;28;20116;-81
2022/08/03 07:49:11;;;;;;;7.40;3.17;;;;;;;;;;4999112;28;20053;-82
2022/08/03 07:51:44;;;;;;;6.15;3.28;;;;;;;;;;4981767;28;20061;-82
2022/08/03 07:54:13;;;;;;;5.03;2.72;;;;;;;;;;5000456;28;20046;-81
2022/08/03 07:56:41;;;;;;;7.55;3.33;;;;;;;;;;4998641;28;20545;-82
2022/08/03 07:59:13;;;;;;;4.15;2.72;;;;;;;;;;4991437;28;20137;-83
2022/08/03 08:01:52;;;;;;;5.40;2.70;;;;;;;;;;4976941;28;20145;-85
2022/08/03 08:04:21;;;;;;;4.32;3.03;;;;;;;;;;4999491;28;20050;-83
2022/08/03 08:07:38;;;;;;;7.85;2.83;;;;;;;;;;4970881;28;20057;-85
2022/08/03 08:10:27;;;;;;;4.82;2.65;;;;;;;;;;4990963;28;20157;-82
2022/08/03 08:13:34;;;;;;;4.18;2.60;;;;;;;;;;4999154;28;20112;-84
2022/08/03 08:16:16;;;;;;;6.07;3.00;;;;;;;;;;4984790;28;20061;-83
2022/08/03 08:19:02;;;;;;;3.60;2.25;;;;;;;;;;4985121;28;20746;-83
2022/08/03 08:21:33;;;;;;;6.40;2.33;;;;;;;;;;4999522;28;20091;-84
2022/08/03 08:25:11;;;;;;;4.10;2.25;;;;;;;;;;4987810;28;20069;-85
2022/08/03 08:28:47;;;;;;;4.05;2.30;;;;;;;;;;4944312;28;20056;-85
2022/08/03 08:31:46;;;;;;;5.28;2.20;;;;;;;;;;4967644;28;20062;-86
2022/08/03 08:35:53;;;;;;;11.73;2.78;;;;;;;;;;4930316;28;20079;-85
2022/08/03 08:39:07;;;;;;;4.05;1.95;;;;;;;;;;4931279;28;20070;-88
2022/08/03 08:41:51;;;;;;;3.85;1.95;;;;;;;;;;4937010;28;20063;-86
2022/08/03 08:44:32;;;;;;;4.10;2.00;;;;;;;;;;4935131;28;21102;-86
2022/08/03 08:47:08;;;;;;;3.40;1.88;;;;;;;;;;4939351;28;20059;-85
2022/08/03 08:49:53;;;;;;;3.55;1.52;;;;;;;;;;4940534;28;20055;-85
2022/08/03 09:17:16;;;;;;;6.90;1.98;;;;;;;;;;4863711;29;20049;-85
2022/08/03 09:20:08;;;;;;;9.55;1.92;;;;;;;;;;4858450;29;20473;-84
2022/08/03 09:23:16;;;;;;;6.43;1.70;;;;;;;;;;4882210;29;20083;-84
2022/08/03 09:26:27;;;;;;;8.30;1.83;;;;;;;;;;4882799;29;20075;-84
2022/08/03 09:29:04;;;;;;;4.63;1.70;;;;;;;;;;4895604;29;20056;-84
2022/08/03 09:32:01;;;;;;;3.15;1.48;;;;;;;;;;4881056;29;20454;-83
2022/08/03 09:34:46;;;;;;;5.60;1.65;;;;;;;;;;4895725;29;20060;-83
2022/08/03 09:37:40;;;;;;;5.20;1.60;;;;;;;;;;4909893;29;20056;-84
2022/08/03 09:40:35;;;;;;;7.95;2.05;;;;;;;;;;4966276;28;20049;-84
2022/08/03 09:43:27;;;;;;;4.40;1.60;;;;;;;;;;4982860;28;20148;-84
2022/08/03 09:46:03;;;;;;;5.28;1.95;;;;;;;;;;4991215;28;20503;-84
2022/08/03 09:48:45;;;;;;;3.75;1.50;;;;;;;;;;4995381;28;20054;-85
2022/08/03 09:51:18;;;;;;;5.20;1.70;;;;;;;;;;4979530;28;20501;-86
2022/08/03 09:54:02;;;;;;;7.23;1.87;;;;;;;;;;4996491;28;20061;-86
2022/08/03 09:57:23;;;;;;;6.28;2.03;;;;;;;;;;4992554;28;20702;-85
2022/08/03 09:59:57;;;;;;;7.07;2.00;;;;;;;;;;4992408;28;20878;-85
2022/08/03 10:02:42;;;;;;;4.30;1.90;;;;;;;;;;4990183;28;20061;-87
2022/08/03 10:15:27;;;;;;;3.88;1.70;;;;;;;;;;4915632;29;20094;-87
2022/08/03 10:19:25;;;;;;;4.93;1.55;;;;;;;;;;4912927;29;20143;-84
2022/08/03 10:27:22;;;;;;;4.43;1.50;;;;;;;;;;4905169;29;20047;-85
2022/08/03 10:30:57;;;;;;;3.85;1.70;;;;;;;;;;4911869;29;20524;-84
2022/08/03 10:34:33;;;;;;;4.90;1.38;;;;;;;;;;4913521;29;20079;-86
2022/08/03 10:38:18;;;;;;;4.03;1.50;;;;;;;;;;4819093;29;20387;-85
2022/08/03 10:40:54;;;;;;;7.28;1.73;;;;;;;;;;4815019;29;20994;-86
2022/08/03 11:12:22;;;;;;;4.30;1.95;;;;;;;;;;4722801;30;20048;-88
2022/08/03 11:20:05;;;;;;;7.82;1.60;;;;;;;;;;4823024;29;20270;-86
2022/08/03 11:23:37;;;;;;;3.92;1.42;;;;;;;;;;4877177;29;20430;-87
2022/08/03 11:33:12;;;;;;;5.13;1.35;;;;;;;;;;4927324;29;20059;-86
2022/08/03 11:37:09;;;;;;;6.47;1.55;;;;;;;;;;4933927;28;20099;-85
2022/08/03 11:41:52;;;;;;;4.85;1.50;;;;;;;;;;4910631;29;20052;-85
2022/08/03 11:45:32;;;;;;;5.07;1.60;;;;;;;;;;4916166;29;20088;-86
2022/08/03 11:48:43;;;;;;;6.40;1.45;;;;;;;;;;4929854;29;20431;-84
2022/08/03 11:52:58;;;;;;;6.65;1.70;;;;;;;;;;4919007;29;20695;-85
2022/08/03 12:15:24;;;;;;;8.70;1.65;;;;;;;;;;4891279;29;20124;-87
2022/08/03 12:28:32;;;;;;;3.38;1.35;;;;;;;;;;4819354;29;20215;-85
2022/08/03 12:37:18;;;;;;;4.70;1.20;;;;;;;;;;4904642;29;20044;-84
2022/08/03 12:41:29;;;;;;;4.32;1.30;;;;;;;;;;4904398;29;20634;-84
2022/08/03 12:44:59;;;;;;;6.68;1.17;;;;;;;;;;4910192;29;22013;-85
2022/08/03 12:49:18;;;;;;;4.80;1.77;;;;;;;;;;4878194;29;20061;-85
2022/08/03 12:53:05;;;;;;;4.63;1.42;;;;;;;;;;4883440;29;20056;-85
2022/08/03 12:56:44;;;;;;;5.05;1.30;;;;;;;;;;4885399;29;20064;-86
2022/08/03 13:02:07;;;;;;;2.35;1.13;;;;;;;;;;4892356;29;20044;-86
2022/08/03 13:07:15;;;;;;;3.88;1.58;;;;;;;;;;4857801;29;20051;-87
2022/08/03 13:11:49;;;;;;;3.55;1.35;;;;;;;;;;4774246;29;20054;-86
2022/08/03 13:16:26;;;;;;;4.32;1.85;;;;;;;;;;4688014;30;20105;-87
2022/08/03 15:34:38;;;;;;;3.10;1.35;;;;;;;;;;4988785;28;20038;-84
2022/08/03 15:37:26;;;;;;;9.13;1.70;;;;;;;;;;4985949;28;20069;-84
2022/08/03 15:40:59;;;;;;;6.55;1.70;;;;;;;;;;4969298;28;20057;-83
2022/08/03 15:43:40;;;;;;;4.82;1.90;;;;;;;;;;4991243;28;20524;-83
2022/08/03 15:46:21;;;;;;;5.65;2.35;;;;;;;;;;4962415;28;20852;-83
2022/08/03 15:49:13;;;;;;;5.20;1.80;;;;;;;;;;4988525;28;20046;-83
2022/08/03 15:52:21;;;;;;;5.40;1.73;;;;;;;;;;4988768;28;20046;-84
2022/08/03 15:55:04;;;;;;;4.80;1.58;;;;;;;;;;4991905;28;20112;-84
2022/08/03 15:58:12;;;;;;;8.90;1.63;;;;;;;;;;4978526;28;20119;-84
2022/08/03 16:01:06;;;;;;;6.82;1.70;;;;;;;;;;4974451;28;20082;-84
2022/08/03 16:03:51;;;;;;;6.00;1.75;;;;;;;;;;4951877;28;20139;-84
2022/08/03 16:06:33;;;;;;;6.93;2.00;;;;;;;;;;4991910;28;20109;-84
2022/08/03 16:09:19;;;;;;;5.20;1.50;;;;;;;;;;4972856;28;20051;-83
2022/08/03 16:12:50;;;;;;;6.68;2.38;;;;;;;;;;4992049;28;20561;-86
2022/08/03 16:16:17;;;;;;;8.02;1.95;;;;;;;;;;4940406;28;20081;-84
2022/08/03 16:20:02;;;;;;;6.10;1.63;;;;;;;;;;4934952;29;21007;-84
2022/08/03 16:22:47;;;;;;;7.77;1.33;;;;;;;;;;4933914;29;20170;-84
2022/08/03 16:29:36;;;;;;;4.75;1.45;;;;;;;;;;4935994;29;20843;-84
2022/08/03 16:32:20;;;;;;;4.27;1.30;;;;;;;;;;4904241;29;20059;-84
2022/08/03 16:35:01;;;;;;;9.85;2.33;;;;;;;;;;4918046;29;20062;-84
2022/08/03 16:37:50;;;;;;;4.05;1.63;;;;;;;;;;4931852;29;20051;-84
2022/08/03 16:41:05;;;;;;;6.07;1.60;;;;;;;;;;4934442;29;20091;-83
2022/08/03 16:45:22;;;;;;;5.03;1.70;;;;;;;;;;4926073;29;20057;-85
2022/08/03 16:48:04;;;;;;;4.95;1.50;;;;;;;;;;4919472;29;20380;-86
2022/08/03 16:51:40;;;;;;;10.13;1.63;;;;;;;;;;4897174;29;20115;-85
2022/08/03 16:55:04;;;;;;;6.05;1.83;;;;;;;;;;4877246;29;20163;-85
2022/08/03 16:58:49;;;;;;;;;;;;;;;;;;4869675;29;20093;-84
2022/08/03 17:03:11;;;;;;;3.70;1.42;;;;;;;;;;4904971;29;19946;-84
2022/08/03 17:06:15;;;;;;;3.72;1.35;;;;;;;;;;4858558;29;20176;-84
2022/08/03 17:08:58;;;;;;;4.35;1.40;;;;;;;;;;4859919;29;20148;-85
2022/08/03 17:11:44;;;;;;;7.85;1.58;;;;;;;;;;4869995;29;20113;-85
2022/08/03 17:14:25;;;;;;;6.07;1.30;;;;;;;;;;4865986;29;20057;-85
2022/08/03 17:17:22;;;;;;;6.35;1.70;;;;;;;;;;4852212;29;20093;-85
2022/08/03 17:20:26;;;;;;;3.83;1.50;;;;;;;;;;4865947;29;20060;-85
2022/08/03 17:23:24;;;;;;;4.82;1.80;;;;;;;;;;4851257;29;20072;-86
2022/08/03 17:26:34;;;;;;;3.90;1.48;;;;;;;;;;4897573;29;20061;-84
2022/08/03 17:29:49;;;;;;;4.85;1.70;;;;;;;;;;4887059;29;20052;-84
2022/08/03 17:33:14;;;;;;;6.90;1.42;;;;;;;;;;4910830;29;20055;-84
2022/08/03 17:35:52;;;;;;;4.25;1.40;;;;;;;;;;4906674;29;20130;-83
2022/08/03 17:38:37;;;;;;;7.13;1.65;;;;;;;;;;4929167;29;20055;-84
2022/08/03 17:41:32;;;;;;;4.00;1.45;;;;;;;;;;4942918;29;20055;-85
2022/08/03 17:44:30;;;;;;;5.18;1.80;;;;;;;;;;4955225;28;20146;-84
2022/08/03 17:48:11;;;;;;;6.45;1.85;;;;;;;;;;4945451;28;20150;-86
2022/08/03 17:51:46;;;;;;;4.32;1.67;;;;;;;;;;4938329;28;20066;-87
2022/08/03 17:55:37;;;;;;;3.55;1.30;;;;;;;;;;4948450;28;20050;-85
2022/08/03 18:03:35;;;;;;;6.40;1.67;;;;;;;;;;4916648;29;20059;-85
2022/08/03 18:07:39;;;;;;;5.75;1.48;;;;;;;;;;4908417;29;20066;-86
2022/08/03 18:12:18;;;;;;;7.50;2.67;;;;;;;;;;4919493;29;20047;-86
2022/08/03 18:15:37;;;;;;;8.70;1.50;;;;;;;;;;4880019;29;20068;-85
2022/08/03 18:18:37;;;;;;;3.40;1.40;;;;;;;;;;4854984;29;20071;-85
2022/08/03 18:22:55;;;;;;;11.63;1.50;;;;;;;;;;4843154;29;20100;-85
2022/08/03 18:26:18;;;;;;;5.70;1.90;;;;;;;;;;4842105;29;20061;-85
2022/08/03 18:29:22;;;;;;;5.85;1.63;;;;;;;;;;4841283;29;20115;-85
2022/08/03 18:47:07;;;;;;;4.95;1.48;;;;;;;;;;4881409;29;20139;-85
2022/08/03 18:51:19;;;;;;;7.43;2.38;;;;;;;;;;4887361;29;20115;-86
2022/08/03 18:55:08;;;;;;;7.35;1.52;;;;;;;;;;4905798;29;20715;-85
2022/08/03 18:59:46;;;;;;;7.80;1.48;;;;;;;;;;4871893;29;20113;-86
2022/08/03 20:17:14;;;;;;;10.13;3.25;;;;;;;;;;5013726;28;20076;-86
2022/08/03 20:27:00;;;;;;;9.32;2.80;;;;;;;;;;5011781;28;20147;-85
2022/08/03 22:04:41;;;;;;;8.60;2.30;;;;;;;;;;5029940;28;20412;-85
2022/08/03 22:07:52;;;;;;;10.95;2.28;;;;;;;;;;5002938;28;20048;-84
2022/08/03 22:15:24;;;;;;;7.18;2.03;;;;;;;;;;5033206;28;20472;-85
2022/08/03 22:18:51;;;;;;;11.30;2.25;;;;;;;;;;5030361;28;20056;-85
2022/08/03 22:23:15;;;;;;;9.50;2.30;;;;;;;;;;5032862;28;20045;-85
2022/08/03 22:27:33;;;;;;;5.00;2.28;;;;;;;;;;4938348;28;20119;-85
2022/08/03 22:31:39;;;;;;;7.63;2.33;;;;;;;;;;4913876;29;20070;-85
2022/08/03 22:49:57;;;;;;;12.60;2.88;;;;;;;;;;4793456;29;20721;-85
2022/08/03 23:08:34;;;;;;;5.75;2.22;;;;;;;;;;4830009;29;20056;-87
2022/08/03 23:12:42;;;;;;;8.15;2.75;;;;;;;;;;4837233;29;20525;-85
2022/08/03 23:45:08;;;;;;;6.37;2.20;;;;;;;;;;4855314;29;20046;-85
2022/08/03 23:54:04;;;;;;;6.15;2.53;;;;;;;;;;4832066;29;20141;-85
2022/08/03 23:58:09;;;;;;;8.18;2.35;;;;;;;;;;4847127;29;20101;-85
